createdAt,value
2022-10-10T00:01:36.960Z,9.20
2022-10-10T00:04:06.166Z,9.20
2022-10-10T00:06:36.664Z,9.10
2022-10-10T00:09:06.572Z,9.10
2022-10-10T00:11:34.681Z,9.10
2022-10-10T00:14:03.147Z,9.10
2022-10-10T00:16:32.803Z,9.00
2022-10-10T00:19:01.048Z,9.00
2022-10-10T00:21:31.746Z,8.90
2022-10-10T00:24:00.707Z,9.00
2022-10-10T00:26:29.256Z,8.90
2022-10-10T00:28:57.469Z,8.90
2022-10-10T00:31:25.589Z,8.90
2022-10-10T00:33:55.164Z,8.90
2022-10-10T00:36:23.555Z,8.90
2022-10-10T00:38:51.584Z,8.90
2022-10-10T00:41:19.867Z,8.90
2022-10-10T00:44:08.596Z,8.90
2022-10-10T00:46:37.337Z,9.00
2022-10-10T00:49:11.244Z,9.00
2022-10-10T00:51:39.664Z,9.00
2022-10-10T00:54:10.511Z,9.00
2022-10-10T00:56:45.000Z,9.00
2022-10-10T00:59:13.233Z,9.00
2022-10-10T01:01:43.985Z,9.00
2022-10-10T01:04:36.010Z,9.00
2022-10-10T01:07:06.935Z,9.00
2022-10-10T01:09:36.351Z,9.00
2022-10-10T01:12:16.733Z,9.00
2022-10-10T01:14:51.712Z,9.00
2022-10-10T01:17:26.580Z,9.10
2022-10-10T01:20:27.507Z,9.10
2022-10-10T01:23:21.246Z,9.20
2022-10-10T01:26:00.412Z,9.20
2022-10-10T01:28:39.576Z,9.20
2022-10-10T01:31:10.128Z,9.20
2022-10-10T01:33:50.650Z,9.10
2022-10-10T01:36:23.385Z,9.10
2022-10-10T01:38:56.343Z,9.00
2022-10-10T01:41:32.073Z,9.00
2022-10-10T01:44:01.488Z,8.90
2022-10-10T01:46:29.586Z,8.90
2022-10-10T01:48:59.311Z,8.80
2022-10-10T01:51:45.476Z,8.80
2022-10-10T01:54:29.294Z,8.80
2022-10-10T01:57:05.650Z,8.80
2022-10-10T01:59:47.864Z,8.80
2022-10-10T02:02:23.785Z,8.70
2022-10-10T02:04:59.679Z,8.70
2022-10-10T02:07:33.355Z,8.70
2022-10-10T02:10:04.081Z,8.60
2022-10-10T02:12:33.239Z,8.60
2022-10-10T02:15:08.611Z,8.60
2022-10-10T02:17:39.374Z,8.60
2022-10-10T02:20:11.963Z,8.60
2022-10-10T02:22:41.741Z,8.60
2022-10-10T02:25:10.520Z,8.60
2022-10-10T02:27:44.581Z,8.50
2022-10-10T02:30:15.502Z,8.50
2022-10-10T02:32:46.524Z,8.50
2022-10-10T02:35:20.383Z,8.40
2022-10-10T02:37:49.561Z,8.40
2022-10-10T02:40:23.976Z,8.40
2022-10-10T02:42:54.108Z,8.30
2022-10-10T02:45:24.359Z,8.20
2022-10-10T02:47:52.975Z,8.20
2022-10-10T02:50:24.487Z,8.20
2022-10-10T02:52:52.833Z,8.20
2022-10-10T02:55:21.213Z,8.20
2022-10-10T02:57:49.281Z,8.20
2022-10-10T03:00:17.884Z,8.20
2022-10-10T03:02:47.451Z,8.20
2022-10-10T03:05:15.643Z,8.10
2022-10-10T03:07:43.646Z,8.00
2022-10-10T03:10:11.689Z,8.00
2022-10-10T03:12:39.712Z,8.00
2022-10-10T03:15:11.647Z,8.00
2022-10-10T03:17:40.379Z,8.00
2022-10-10T03:20:12.639Z,8.00
2022-10-10T03:22:40.676Z,8.00
2022-10-10T03:25:09.046Z,8.00
2022-10-10T03:27:37.058Z,8.00
2022-10-10T03:30:08.464Z,8.00
2022-10-10T03:32:36.449Z,8.00
2022-10-10T03:35:04.843Z,7.90
2022-10-10T03:37:34.230Z,7.90
2022-10-10T03:40:02.276Z,7.90
2022-10-10T03:42:30.336Z,7.90
2022-10-10T03:44:58.422Z,8.00
2022-10-10T03:47:26.463Z,8.00
2022-10-10T03:49:54.489Z,8.10
2022-10-10T03:52:22.905Z,8.10
2022-10-10T03:54:52.358Z,8.10
2022-10-10T03:57:20.413Z,8.10
2022-10-10T03:59:48.536Z,8.20
2022-10-10T04:02:16.711Z,8.20
2022-10-10T04:04:44.736Z,8.30
2022-10-10T04:07:14.850Z,8.30
2022-10-10T04:09:42.892Z,8.20
2022-10-10T04:12:12.237Z,8.20
2022-10-10T04:14:40.333Z,8.20
2022-10-10T04:17:11.441Z,8.20
2022-10-10T04:19:39.480Z,8.20
2022-10-10T04:22:10.997Z,8.20
2022-10-10T04:24:39.442Z,8.20
2022-10-10T04:27:12.633Z,8.20
2022-10-10T04:29:40.971Z,8.10
2022-10-10T04:32:09.002Z,8.10
2022-10-10T04:34:39.445Z,8.10
2022-10-10T04:37:07.749Z,8.10
2022-10-10T04:39:35.775Z,8.10
2022-10-10T04:42:03.776Z,8.10
2022-10-10T04:44:33.136Z,8.10
2022-10-10T04:47:01.754Z,8.20
2022-10-10T04:49:29.962Z,8.20
2022-10-10T04:51:57.975Z,8.20
2022-10-10T04:54:26.071Z,8.20
2022-10-10T04:56:54.115Z,8.20
2022-10-10T04:59:22.487Z,8.20
2022-10-10T05:01:51.915Z,8.20
2022-10-10T05:04:19.977Z,8.30
2022-10-10T05:06:48.081Z,8.30
2022-10-10T05:09:16.373Z,8.30
2022-10-10T05:11:46.464Z,8.20
2022-10-10T05:14:14.518Z,8.20
2022-10-10T05:16:42.569Z,8.10
2022-10-10T05:19:11.998Z,8.00
2022-10-10T05:21:40.151Z,8.00
2022-10-10T05:24:08.273Z,8.00
2022-10-10T05:26:39.766Z,7.90
2022-10-10T05:29:11.221Z,7.90
2022-10-10T05:31:41.603Z,7.90
2022-10-10T05:34:13.655Z,8.00
2022-10-10T05:36:41.750Z,8.00
2022-10-10T05:39:09.988Z,8.00
2022-10-10T05:41:38.162Z,8.10
2022-10-10T05:44:06.232Z,8.20
2022-10-10T05:46:34.194Z,8.30
2022-10-10T05:49:02.201Z,8.40
2022-10-10T05:51:31.583Z,8.40
2022-10-10T05:54:00.182Z,8.40
2022-10-10T05:56:28.224Z,8.40
2022-10-10T05:58:56.371Z,8.50
2022-10-10T06:01:24.445Z,8.50
2022-10-10T06:03:55.849Z,8.60
2022-10-10T06:06:24.427Z,8.60
2022-10-10T06:08:53.895Z,8.60
2022-10-10T06:11:25.092Z,8.60
2022-10-10T06:13:54.354Z,8.60
2022-10-10T06:16:22.967Z,8.60
2022-10-10T06:18:51.129Z,8.60
2022-10-10T06:21:19.464Z,8.60
2022-10-10T06:23:47.585Z,8.60
2022-10-10T06:26:17.060Z,8.60
2022-10-10T06:28:45.136Z,8.60
2022-10-10T06:31:14.436Z,8.60
2022-10-10T06:33:45.419Z,8.60
2022-10-10T06:36:15.193Z,8.60
2022-10-10T06:38:45.370Z,8.60
2022-10-10T06:41:14.455Z,8.60
2022-10-10T06:43:43.891Z,8.60
2022-10-10T06:46:11.946Z,8.70
2022-10-10T06:48:39.976Z,8.70
2022-10-10T06:51:09.847Z,8.70
2022-10-10T06:53:39.433Z,8.70
2022-10-10T06:56:07.533Z,8.80
2022-10-10T06:58:36.310Z,8.90
2022-10-10T07:01:06.310Z,9.20
2022-10-10T07:03:34.497Z,9.40
2022-10-10T07:06:03.806Z,9.50
2022-10-10T07:08:31.943Z,9.60
2022-10-10T07:11:00.108Z,9.80
2022-10-10T07:13:28.329Z,9.90
2022-10-10T07:15:56.410Z,9.90
2022-10-10T07:18:28.026Z,10.00
2022-10-10T07:20:58.090Z,10.10
2022-10-10T07:23:31.325Z,10.20
2022-10-10T07:26:03.639Z,10.20
2022-10-10T07:28:35.109Z,10.20
2022-10-10T07:31:05.681Z,10.20
2022-10-10T07:33:36.946Z,10.20
2022-10-10T07:36:05.633Z,10.20
2022-10-10T07:38:34.012Z,10.40
2022-10-10T07:41:02.643Z,10.50
2022-10-10T07:43:30.711Z,10.70
2022-10-10T07:48:32.189Z,11.10
2022-10-10T07:51:01.734Z,11.20
2022-10-10T07:53:29.763Z,11.30
2022-10-10T07:55:57.880Z,11.50
2022-10-10T07:58:26.049Z,11.60
2022-10-10T08:01:03.397Z,11.70
2022-10-10T08:03:31.614Z,11.90
2022-10-10T08:06:03.450Z,12.00
2022-10-10T08:08:34.230Z,12.20
2022-10-10T08:11:04.920Z,12.40
2022-10-10T08:13:33.064Z,12.50
2022-10-10T08:16:04.381Z,12.60
2022-10-10T08:18:32.455Z,12.50
2022-10-10T08:21:07.343Z,12.40
2022-10-10T08:23:36.233Z,12.40
2022-10-10T08:26:07.107Z,12.50
2022-10-10T08:28:35.974Z,12.60
2022-10-10T08:31:06.511Z,12.80
2022-10-10T08:33:34.919Z,12.90
2022-10-10T08:36:08.267Z,13.00
2022-10-10T08:38:38.689Z,13.20
2022-10-10T08:41:10.238Z,13.30
2022-10-10T08:43:42.874Z,13.50
2022-10-10T08:46:17.629Z,13.70
2022-10-10T08:48:50.502Z,13.90
2022-10-10T08:51:27.561Z,14.10
2022-10-10T08:53:58.916Z,14.30
2022-10-10T08:56:31.315Z,14.40
2022-10-10T08:59:11.535Z,14.50
2022-10-10T09:02:18.212Z,14.60
2022-10-10T09:04:32.492Z,14.60
2022-10-10T09:07:16.029Z,14.50
2022-10-10T09:09:55.757Z,14.50
2022-10-10T09:12:27.578Z,14.60
2022-10-10T09:15:04.823Z,14.90
2022-10-10T09:17:40.964Z,14.90
2022-10-10T09:20:21.464Z,15.00
2022-10-10T09:22:57.556Z,15.20
2022-10-10T09:25:30.710Z,15.50
2022-10-10T09:28:03.919Z,15.50
2022-10-10T09:30:36.542Z,15.50
2022-10-10T09:33:09.838Z,15.60
2022-10-10T09:35:42.339Z,15.40
2022-10-10T09:38:35.108Z,15.50
2022-10-10T09:41:09.668Z,15.60
2022-10-10T09:43:40.063Z,15.60
2022-10-10T09:46:09.664Z,15.70
2022-10-10T09:48:39.748Z,16.00
2022-10-10T09:51:13.021Z,16.40
2022-10-10T09:53:43.030Z,16.60
2022-10-10T09:56:17.110Z,16.50
2022-10-10T09:58:49.170Z,16.30
2022-10-10T10:01:19.831Z,16.00
2022-10-10T10:04:27.177Z,16.00
2022-10-10T10:07:06.894Z,16.20
2022-10-10T10:09:36.380Z,16.30
2022-10-10T10:12:07.274Z,16.20
2022-10-10T10:14:38.928Z,16.40
2022-10-10T10:17:09.377Z,16.50
2022-10-10T10:19:39.378Z,16.70
2022-10-10T10:22:31.345Z,16.90
2022-10-10T10:25:31.537Z,17.10
2022-10-10T10:28:21.610Z,17.20
2022-10-10T10:30:55.070Z,17.40
2022-10-10T10:33:38.655Z,17.50
2022-10-10T10:36:24.390Z,17.50
2022-10-10T10:38:59.046Z,17.40
2022-10-10T10:41:34.406Z,17.40
2022-10-10T10:44:14.807Z,17.60
2022-10-10T10:46:51.143Z,17.80
2022-10-10T10:49:35.582Z,18.00
2022-10-10T10:52:27.315Z,18.20
2022-10-10T10:55:08.455Z,18.50
2022-10-10T10:58:10.370Z,18.80
2022-10-10T11:01:24.015Z,18.70
2022-10-10T11:05:15.727Z,18.40
2022-10-10T11:07:17.282Z,18.00
2022-10-10T11:09:50.687Z,17.60
2022-10-10T11:12:34.828Z,17.40
2022-10-10T11:15:10.695Z,17.20
2022-10-10T11:17:44.177Z,17.10
2022-10-10T11:20:23.116Z,17.20
2022-10-10T11:22:56.108Z,17.20
2022-10-10T11:25:27.746Z,17.30
2022-10-10T11:28:01.905Z,17.60
2022-10-10T11:30:35.981Z,17.80
2022-10-10T11:33:11.771Z,18.20
2022-10-10T11:35:46.460Z,18.50
2022-10-10T11:38:21.668Z,18.70
2022-10-10T11:40:56.324Z,18.80
2022-10-10T11:43:33.485Z,18.90
2022-10-10T11:46:12.585Z,19.00
2022-10-10T11:48:49.244Z,19.10
2022-10-10T11:51:36.960Z,19.00
2022-10-10T11:54:12.401Z,18.80
2022-10-10T11:56:44.711Z,18.70
2022-10-10T11:59:19.302Z,18.70
2022-10-10T12:01:53.693Z,18.80
2022-10-10T12:04:23.712Z,18.80
2022-10-10T12:06:55.109Z,18.80
2022-10-10T12:09:28.637Z,18.60
2022-10-10T12:11:59.854Z,18.70
2022-10-10T12:14:31.382Z,18.80
2022-10-10T12:17:01.394Z,18.90
2022-10-10T12:19:30.312Z,18.80
2022-10-10T12:22:05.115Z,18.90
2022-10-10T12:24:38.646Z,19.00
2022-10-10T12:27:28.166Z,19.20
2022-10-10T12:30:19.544Z,19.40
2022-10-10T12:32:54.146Z,19.80
2022-10-10T12:35:42.287Z,20.20
2022-10-10T12:38:20.451Z,20.50
2022-10-10T12:41:11.532Z,20.60
2022-10-10T12:43:43.190Z,20.70
2022-10-10T12:46:34.581Z,20.70
2022-10-10T12:49:23.205Z,20.80
2022-10-10T12:52:12.206Z,20.60
2022-10-10T12:54:43.754Z,20.60
2022-10-10T12:57:18.381Z,20.50
2022-10-10T12:59:47.052Z,20.30
2022-10-10T13:02:24.911Z,20.20
2022-10-10T13:04:58.495Z,20.30
2022-10-10T13:07:29.593Z,20.20
2022-10-10T13:10:07.999Z,20.40
2022-10-10T13:12:36.163Z,20.50
2022-10-10T13:15:06.368Z,20.50
2022-10-10T13:17:42.307Z,20.30
2022-10-10T13:20:29.153Z,20.10
2022-10-10T13:22:57.795Z,20.10
2022-10-10T13:25:25.919Z,20.10
2022-10-10T13:27:54.092Z,20.00
2022-10-10T13:30:24.638Z,20.10
2022-10-10T13:32:56.070Z,20.10
2022-10-10T13:35:28.568Z,20.40
2022-10-10T13:37:58.006Z,20.50
2022-10-10T13:40:27.531Z,20.70
2022-10-10T13:42:56.354Z,20.80
2022-10-10T13:45:38.546Z,20.80
2022-10-10T13:48:22.571Z,20.80
2022-10-10T13:51:06.196Z,20.70
2022-10-10T13:53:54.050Z,20.60
2022-10-10T13:56:28.768Z,20.50
2022-10-10T13:59:05.716Z,20.30
2022-10-10T14:01:37.777Z,20.30
2022-10-10T14:04:25.156Z,20.20
2022-10-10T14:07:02.607Z,20.20
2022-10-10T14:09:32.724Z,20.30
2022-10-10T14:12:03.284Z,20.30
2022-10-10T14:14:35.966Z,20.40
2022-10-10T14:17:06.551Z,20.30
2022-10-10T14:19:34.868Z,20.40
2022-10-10T14:22:04.804Z,20.50
2022-10-10T14:24:32.855Z,20.40
2022-10-10T14:27:08.201Z,20.30
2022-10-10T14:29:36.319Z,20.20
2022-10-10T14:32:07.217Z,19.90
2022-10-10T14:34:35.421Z,19.80
2022-10-10T14:37:05.137Z,19.70
2022-10-10T14:39:33.612Z,19.50
2022-10-10T14:42:03.623Z,19.40
2022-10-10T14:44:31.857Z,19.30
2022-10-10T14:46:59.941Z,19.30
2022-10-10T14:49:28.030Z,19.30
2022-10-10T14:51:56.220Z,19.40
2022-10-10T14:54:25.719Z,19.30
2022-10-10T14:57:09.505Z,19.30
2022-10-10T14:59:46.169Z,19.30
2022-10-10T15:02:21.699Z,19.20
2022-10-10T15:04:50.563Z,19.10
2022-10-10T15:07:19.421Z,19.00
2022-10-10T15:10:30.857Z,18.90
2022-10-10T15:12:39.856Z,18.90
2022-10-10T15:15:09.992Z,18.80
2022-10-10T15:17:38.324Z,18.70
2022-10-10T15:20:10.985Z,18.60
2022-10-10T15:22:39.741Z,18.60
2022-10-10T15:25:10.376Z,18.50
2022-10-10T15:27:38.642Z,18.40
2022-10-10T15:30:07.874Z,18.30
2022-10-10T15:32:39.807Z,18.20
2022-10-10T15:35:08.708Z,18.20
2022-10-10T15:37:36.827Z,18.10
2022-10-10T15:40:05.816Z,18.00
2022-10-10T15:42:35.350Z,17.90
2022-10-10T15:45:03.738Z,17.90
2022-10-10T15:47:32.595Z,17.80
2022-10-10T15:50:01.026Z,17.70
2022-10-10T15:52:29.130Z,17.60
2022-10-10T15:54:57.786Z,17.40
2022-10-10T15:57:25.851Z,17.30
2022-10-10T15:59:57.625Z,17.20
2022-10-10T16:02:25.790Z,17.20
2022-10-10T16:04:56.207Z,17.00
2022-10-10T16:07:29.269Z,16.90
2022-10-10T16:10:01.098Z,16.80
2022-10-10T16:12:31.825Z,16.70
2022-10-10T16:15:06.055Z,16.50
2022-10-10T16:17:35.185Z,16.50
2022-10-10T16:20:03.782Z,16.30
2022-10-10T16:22:31.978Z,16.20
2022-10-10T16:27:48.800Z,16.10
2022-10-10T16:30:20.116Z,16.00
2022-10-10T16:32:48.973Z,15.90
2022-10-10T16:35:19.598Z,15.90
2022-10-10T16:37:48.983Z,15.70
2022-10-10T16:40:17.501Z,15.60
2022-10-10T16:42:45.845Z,15.60
2022-10-10T16:45:14.125Z,15.50
2022-10-10T16:47:43.613Z,15.50
2022-10-10T16:50:12.293Z,15.40
2022-10-10T16:52:40.495Z,15.30
2022-10-10T16:55:11.272Z,15.20
2022-10-10T16:57:40.121Z,15.30
2022-10-10T17:00:10.462Z,15.20
2022-10-10T17:02:42.166Z,15.10
2022-10-10T17:05:13.928Z,15.00
2022-10-10T17:07:44.381Z,15.00
2022-10-10T17:10:12.533Z,14.90
2022-10-10T17:12:40.790Z,14.80
2022-10-10T17:15:09.946Z,14.70
2022-10-10T17:17:38.129Z,14.70
2022-10-10T17:20:07.803Z,14.70
2022-10-10T17:22:37.563Z,14.70
2022-10-10T17:25:06.533Z,14.60
2022-10-10T17:27:35.939Z,14.50
2022-10-10T17:30:04.747Z,14.40
2022-10-10T17:32:33.247Z,14.30
2022-10-10T17:35:07.830Z,14.20
2022-10-10T17:37:49.765Z,14.20
2022-10-10T17:40:18.493Z,14.20
2022-10-10T17:42:49.406Z,14.10
2022-10-10T17:45:22.428Z,14.20
2022-10-10T17:47:50.506Z,14.10
2022-10-10T17:50:18.751Z,14.00
2022-10-10T17:52:49.667Z,13.90
2022-10-10T17:55:21.774Z,13.90
2022-10-10T17:57:49.854Z,13.80
2022-10-10T18:00:18.156Z,13.70
2022-10-10T18:02:46.229Z,13.60
2022-10-10T18:05:14.286Z,13.50
2022-10-10T18:07:43.564Z,13.40
2022-10-10T18:10:11.676Z,13.30
2022-10-10T18:12:41.121Z,13.30
2022-10-10T18:15:09.716Z,13.20
2022-10-10T18:17:37.893Z,13.20
2022-10-10T18:20:07.086Z,13.10
2022-10-10T18:22:35.196Z,13.10
2022-10-10T18:25:03.251Z,13.00
2022-10-10T18:27:31.323Z,12.90
2022-10-10T18:30:00.829Z,12.90
2022-10-10T18:32:29.154Z,12.80
2022-10-10T18:34:57.674Z,12.80
2022-10-10T18:37:25.763Z,12.80
2022-10-10T18:39:53.868Z,12.80
2022-10-10T18:42:22.215Z,12.70
2022-10-10T18:44:50.287Z,12.70
2022-10-10T18:47:22.475Z,12.70
2022-10-10T18:49:52.877Z,12.70
2022-10-10T18:52:21.039Z,12.60
2022-10-10T18:54:50.359Z,12.60
2022-10-10T18:57:18.542Z,12.60
2022-10-10T18:59:46.605Z,12.60
2022-10-10T19:02:14.746Z,12.50
2022-10-10T19:04:45.102Z,12.50
2022-10-10T19:07:13.140Z,12.50
2022-10-10T19:09:41.740Z,12.40
2022-10-10T19:12:09.855Z,12.40
2022-10-10T19:14:38.189Z,12.40
2022-10-10T19:17:06.373Z,12.30
2022-10-10T19:19:34.559Z,12.30
2022-10-10T19:22:04.454Z,12.30
2022-10-10T19:24:32.851Z,12.20
2022-10-10T19:27:01.133Z,12.10
2022-10-10T19:29:32.311Z,12.10
2022-10-10T19:32:00.432Z,12.00
2022-10-10T19:34:28.583Z,12.00
2022-10-10T19:36:56.805Z,11.90
2022-10-10T19:39:29.306Z,11.90
2022-10-10T19:41:57.629Z,11.90
2022-10-10T19:44:25.993Z,11.90
2022-10-10T19:46:55.329Z,11.80
2022-10-10T19:49:24.780Z,11.80
2022-10-10T19:51:54.680Z,11.80
2022-10-10T19:54:22.823Z,11.80
2022-10-10T19:56:52.333Z,11.90
2022-10-10T19:59:20.473Z,11.80
2022-10-10T20:01:50.159Z,11.80
2022-10-10T20:04:18.481Z,11.70
2022-10-10T20:06:46.668Z,11.70
2022-10-10T20:09:14.803Z,11.70
2022-10-10T20:11:42.897Z,11.70
2022-10-10T20:14:12.313Z,11.70
2022-10-10T20:16:40.310Z,11.60
2022-10-10T20:19:08.650Z,11.60
2022-10-10T20:21:36.829Z,11.60
2022-10-10T20:24:07.383Z,11.50
2022-10-10T20:26:36.430Z,11.50
2022-10-10T20:29:07.472Z,11.40
2022-10-10T20:31:38.459Z,11.40
2022-10-10T20:34:08.100Z,11.40
2022-10-10T20:36:39.100Z,11.40
2022-10-10T20:39:10.072Z,11.30
2022-10-10T20:41:39.434Z,11.20
2022-10-10T20:44:09.615Z,11.20
2022-10-10T20:46:40.788Z,11.10
2022-10-10T20:49:13.672Z,11.10
2022-10-10T20:51:48.422Z,11.10
2022-10-10T20:54:17.696Z,11.10
2022-10-10T20:56:46.048Z,11.20
2022-10-10T20:59:14.353Z,11.30
2022-10-10T21:01:46.445Z,11.40
2022-10-10T21:04:14.972Z,11.40
2022-10-10T21:06:43.883Z,11.40
2022-10-10T21:09:14.372Z,11.30
2022-10-10T21:11:44.131Z,11.30
2022-10-10T21:14:15.284Z,11.30
2022-10-10T21:16:43.565Z,11.20
2022-10-10T21:19:13.662Z,11.30
2022-10-10T21:21:41.757Z,11.30
2022-10-10T21:24:12.182Z,11.30
2022-10-10T21:26:41.359Z,11.40
2022-10-10T21:29:10.038Z,11.40
2022-10-10T21:31:40.383Z,11.40
2022-10-10T21:34:11.407Z,11.30
2022-10-10T21:36:41.174Z,11.30
2022-10-10T21:39:09.596Z,11.20
2022-10-10T21:41:38.297Z,11.10
2022-10-10T21:44:07.124Z,11.10
2022-10-10T21:46:37.155Z,11.20
2022-10-10T21:49:08.254Z,11.20
2022-10-10T21:51:38.399Z,11.30
2022-10-10T21:54:08.822Z,11.30
2022-10-10T21:56:37.189Z,11.40
2022-10-10T21:59:06.182Z,11.50
2022-10-10T22:01:34.633Z,11.50
2022-10-10T22:04:05.672Z,11.70
2022-10-10T22:06:36.078Z,11.80
2022-10-10T22:09:04.853Z,11.90
2022-10-10T22:11:35.353Z,12.00
2022-10-10T22:14:03.868Z,12.10
2022-10-10T22:16:35.070Z,12.20
2022-10-10T22:19:04.271Z,12.40
2022-10-10T22:21:34.743Z,12.50
2022-10-10T22:24:05.461Z,12.60
2022-10-10T22:26:35.281Z,12.70
2022-10-10T22:29:03.506Z,12.70
2022-10-10T22:31:31.613Z,12.70
2022-10-10T22:33:59.725Z,12.80
2022-10-10T22:36:27.996Z,12.70
2022-10-10T22:38:56.067Z,12.70
2022-10-10T22:41:24.192Z,12.70
2022-10-10T22:43:53.764Z,12.70
2022-10-10T22:46:21.986Z,12.70
2022-10-10T22:48:50.072Z,12.70
2022-10-10T22:51:19.132Z,12.70
2022-10-10T22:53:50.720Z,12.70
2022-10-10T22:56:21.013Z,12.70
2022-10-10T22:58:50.196Z,12.70
2022-10-10T23:01:23.871Z,12.70
2022-10-10T23:03:55.321Z,12.80
2022-10-10T23:06:23.529Z,12.80
2022-10-10T23:08:51.725Z,12.80
2022-10-10T23:11:19.836Z,12.90
2022-10-10T23:13:47.886Z,12.90
2022-10-10T23:16:18.298Z,12.90
2022-10-10T23:18:47.958Z,13.00
2022-10-10T23:21:16.697Z,13.00
2022-10-10T23:23:44.729Z,12.90
2022-10-10T23:26:13.179Z,12.90
2022-10-10T23:28:41.390Z,12.90
2022-10-10T23:31:10.633Z,12.90
2022-10-10T23:33:39.252Z,12.90
2022-10-10T23:36:12.197Z,12.90
2022-10-10T23:38:41.199Z,13.00
2022-10-10T23:41:10.055Z,13.00
2022-10-10T23:43:38.297Z,13.00
2022-10-10T23:46:07.273Z,13.10
2022-10-10T23:48:36.821Z,13.10
2022-10-10T23:51:05.099Z,13.10
2022-10-10T23:53:34.710Z,13.20
2022-10-10T23:56:03.234Z,13.20
2022-10-10T23:58:32.097Z,13.20
